Aviation Digital Data Service (ADDS)

Output produced by METARs form (0513 UTC 19 February 2019)
found at http://www.aviationweather.gov/metar/data/
 
METAR text: VVTS 190500Z 12008KT 080V170 9999 BKN017 33/22 Q1013 NOSIG
Conditions at: VVTS (HO CHI MINH/TANS, VN) observed 0500 UTC 19 February 2019
Temperature: 33.0°C (91°F)
Dewpoint: 22.0°C (72°F) [RH = 53%]
Pressure (altimeter): 29.91 inches Hg (1013.0 mb)
Winds: from the ESE (120 degrees) at 9 MPH (8 knots; 4.1 m/s)
Visibility: 6 or more miles (10+ km)
Ceiling: 1700 feet AGL
Clouds: broken clouds at 1700 feet AGL
Weather: no significant weather observed at this time

METAR text: VVTS 190430Z 11006KT 050V180 9999 BKN017 32/22 Q1014 NOSIG
Conditions at: VVTS (HO CHI MINH/TANS, VN) observed 0430 UTC 19 February 2019
Temperature: 32.0°C (90°F)
Dewpoint: 22.0°C (72°F) [RH = 56%]
Pressure (altimeter): 29.94 inches Hg (1014.0 mb)
Winds: from the ESE (110 degrees) at 7 MPH (6 knots; 3.1 m/s)
Visibility: 6 or more miles (10+ km)
Ceiling: 1700 feet AGL
Clouds: broken clouds at 1700 feet AGL
Weather: no significant weather observed at this time

METAR text: VVTS 190400Z 13009KT 090V170 9999 BKN017 31/22 Q1014 NOSIG
Conditions at: VVTS (HO CHI MINH/TANS, VN) observed 0400 UTC 19 February 2019
Temperature: 31.0°C (88°F)
Dewpoint: 22.0°C (72°F) [RH = 59%]
Pressure (altimeter): 29.94 inches Hg (1014.0 mb)
Winds: from the SE (130 degrees) at 10 MPH (9 knots; 4.6 m/s)
Visibility: 6 or more miles (10+ km)
Ceiling: 1700 feet AGL
Clouds: broken clouds at 1700 feet AGL
Weather: no significant weather observed at this time

METAR text: VVTS 190330Z 12008KT 080V170 9999 BKN017 31/23 Q1014 NOSIG
Conditions at: VVTS (HO CHI MINH/TANS, VN) observed 0330 UTC 19 February 2019
Temperature: 31.0°C (88°F)
Dewpoint: 23.0°C (73°F) [RH = 63%]
Pressure (altimeter): 29.94 inches Hg (1014.0 mb)
Winds: from the ESE (120 degrees) at 9 MPH (8 knots; 4.1 m/s)
Visibility: 6 or more miles (10+ km)
Ceiling: 1700 feet AGL
Clouds: broken clouds at 1700 feet AGL
Weather: no significant weather observed at this time

METAR text: VVTS 190300Z 13010KT 090V160 9999 SCT017 31/24 Q1015 NOSIG
Conditions at: VVTS (HO CHI MINH/TANS, VN) observed 0300 UTC 19 February 2019
Temperature: 31.0°C (88°F)
Dewpoint: 24.0°C (75°F) [RH = 66%]
Pressure (altimeter): 29.97 inches Hg (1015.0 mb)
Winds: from the SE (130 degrees) at 12 MPH (10 knots; 5.1 m/s)
Visibility: 6 or more miles (10+ km)
Ceiling: at least 12,000 feet AGL
Clouds: scattered clouds at 1700 feet AGL
Weather: no significant weather observed at this time

METAR text: VVTS 190230Z 15009KT 120V190 9999 SCT017 30/23 Q1015 NOSIG
Conditions at: VVTS (HO CHI MINH/TANS, VN) observed 0230 UTC 19 February 2019
Temperature: 30.0°C (86°F)
Dewpoint: 23.0°C (73°F) [RH = 66%]
Pressure (altimeter): 29.97 inches Hg (1015.0 mb)
Winds: from the SSE (150 degrees) at 10 MPH (9 knots; 4.6 m/s)
Visibility: 6 or more miles (10+ km)
Ceiling: at least 12,000 feet AGL
Clouds: scattered clouds at 1700 feet AGL
Weather: no significant weather observed at this time

METAR text: VVTS 190200Z 15010KT 9999 BKN017 30/23 Q1014 NOSIG
Conditions at: VVTS (HO CHI MINH/TANS, VN) observed 0200 UTC 19 February 2019
Temperature: 30.0°C (86°F)
Dewpoint: 23.0°C (73°F) [RH = 66%]
Pressure (altimeter): 29.94 inches Hg (1014.0 mb)
Winds: from the SSE (150 degrees) at 12 MPH (10 knots; 5.1 m/s)
Visibility: 6 or more miles (10+ km)
Ceiling: 1700 feet AGL
Clouds: broken clouds at 1700 feet AGL
Weather: no significant weather observed at this time

METAR text: VVTS 190130Z 13006KT 090V150 9999 BKN017 29/24 Q1014 NOSIG
Conditions at: VVTS (HO CHI MINH/TANS, VN) observed 0130 UTC 19 February 2019
Temperature: 29.0°C (84°F)
Dewpoint: 24.0°C (75°F) [RH = 74%]
Pressure (altimeter): 29.94 inches Hg (1014.0 mb)
Winds: from the SE (130 degrees) at 7 MPH (6 knots; 3.1 m/s)
Visibility: 6 or more miles (10+ km)
Ceiling: 1700 feet AGL
Clouds: broken clouds at 1700 feet AGL
Weather: no significant weather observed at this time

METAR text: VVTS 190100Z 12006KT 090V160 9999 SCT017 28/24 Q1014 NOSIG
Conditions at: VVTS (HO CHI MINH/TANS, VN) observed 0100 UTC 19 February 2019
Temperature: 28.0°C (82°F)
Dewpoint: 24.0°C (75°F) [RH = 79%]
Pressure (altimeter): 29.94 inches Hg (1014.0 mb)
Winds: from the ESE (120 degrees) at 7 MPH (6 knots; 3.1 m/s)
Visibility: 6 or more miles (10+ km)
Ceiling: at least 12,000 feet AGL
Clouds: scattered clouds at 1700 feet AGL
Weather: no significant weather observed at this time

METAR text: VVTS 190030Z VRB03KT 8000 FEW017 27/24 Q1013 NOSIG
Conditions at: VVTS (HO CHI MINH/TANS, VN) observed 0030 UTC 19 February 2019
Temperature: 27.0°C (81°F)
Dewpoint: 24.0°C (75°F) [RH = 84%]
Pressure (altimeter): 29.91 inches Hg (1013.0 mb)
Winds: variable direction winds at 3 MPH (3 knots; 1.5 m/s)
Visibility: 5 miles ( 8 km)
Ceiling: at least 12,000 feet AGL
Clouds: few clouds at 1700 feet AGL
Weather: no significant weather observed at this time

METAR text: VVTS 190000Z 07003KT 8000 FEW017 26/25 Q1013 NOSIG
Conditions at: VVTS (HO CHI MINH/TANS, VN) observed 0000 UTC 19 February 2019
Temperature: 26.0°C (79°F)
Dewpoint: 25.0°C (77°F) [RH = 94%]
Pressure (altimeter): 29.91 inches Hg (1013.0 mb)
Winds: from the ENE (70 degrees) at 3 MPH (3 knots; 1.5 m/s)
Visibility: 5 miles ( 8 km)
Ceiling: at least 12,000 feet AGL
Clouds: few clouds at 1700 feet AGL
Weather: no significant weather observed at this time

METAR text: VVTS 182330Z 11005KT 060V170 9999 FEW017 SCT050 26/24 Q1013 NOSIG
Conditions at: VVTS (HO CHI MINH/TANS, VN) observed 2330 UTC 18 February 2019
Temperature: 26.0°C (79°F)
Dewpoint: 24.0°C (75°F) [RH = 89%]
Pressure (altimeter): 29.91 inches Hg (1013.0 mb)
Winds: from the ESE (110 degrees) at 6 MPH (5 knots; 2.6 m/s)
Visibility: 6 or more miles (10+ km)
Ceiling: at least 12,000 feet AGL
Clouds: few clouds at 1700 feet AGL
scattered clouds at 5000 feet AGL
Weather: no significant weather observed at this time

METAR text: VVTS 182300Z 13006KT 9999 FEW017 SCT050 25/24 Q1012 NOSIG
Conditions at: VVTS (HO CHI MINH/TANS, VN) observed 2300 UTC 18 February 2019
Temperature: 25.0°C (77°F)
Dewpoint: 24.0°C (75°F) [RH = 94%]
Pressure (altimeter): 29.88 inches Hg (1012.0 mb)
Winds: from the SE (130 degrees) at 7 MPH (6 knots; 3.1 m/s)
Visibility: 6 or more miles (10+ km)
Ceiling: at least 12,000 feet AGL
Clouds: few clouds at 1700 feet AGL
scattered clouds at 5000 feet AGL
Weather: no significant weather observed at this time

METAR text: VVTS 182230Z 13006KT 9999 FEW017 SCT050 25/24 Q1012 NOSIG
Conditions at: VVTS (HO CHI MINH/TANS, VN) observed 2230 UTC 18 February 2019
Temperature: 25.0°C (77°F)
Dewpoint: 24.0°C (75°F) [RH = 94%]
Pressure (altimeter): 29.88 inches Hg (1012.0 mb)
Winds: from the SE (130 degrees) at 7 MPH (6 knots; 3.1 m/s)
Visibility: 6 or more miles (10+ km)
Ceiling: at least 12,000 feet AGL
Clouds: few clouds at 1700 feet AGL
scattered clouds at 5000 feet AGL
Weather: no significant weather observed at this time

METAR text: VVTS 182200Z 13006KT 9999 FEW017 SCT050 25/24 Q1011 NOSIG
Conditions at: VVTS (HO CHI MINH/TANS, VN) observed 2200 UTC 18 February 2019
Temperature: 25.0°C (77°F)
Dewpoint: 24.0°C (75°F) [RH = 94%]
Pressure (altimeter): 29.85 inches Hg (1011.0 mb)
Winds: from the SE (130 degrees) at 7 MPH (6 knots; 3.1 m/s)
Visibility: 6 or more miles (10+ km)
Ceiling: at least 12,000 feet AGL
Clouds: few clouds at 1700 feet AGL
scattered clouds at 5000 feet AGL
Weather: no significant weather observed at this time

METAR text: VVTS 182130Z 13007KT 9999 FEW017 SCT050 25/24 Q1011 NOSIG
Conditions at: VVTS (HO CHI MINH/TANS, VN) observed 2130 UTC 18 February 2019
Temperature: 25.0°C (77°F)
Dewpoint: 24.0°C (75°F) [RH = 94%]
Pressure (altimeter): 29.85 inches Hg (1011.0 mb)
Winds: from the SE (130 degrees) at 8 MPH (7 knots; 3.6 m/s)
Visibility: 6 or more miles (10+ km)
Ceiling: at least 12,000 feet AGL
Clouds: few clouds at 1700 feet AGL
scattered clouds at 5000 feet AGL
Weather: no significant weather observed at this time

METAR text: VVTS 182100Z 13006KT 110V170 9999 FEW017 SCT050 25/24 Q1011 NOSIG
Conditions at: VVTS (HO CHI MINH/TANS, VN) observed 2100 UTC 18 February 2019
Temperature: 25.0°C (77°F)
Dewpoint: 24.0°C (75°F) [RH = 94%]
Pressure (altimeter): 29.85 inches Hg (1011.0 mb)
Winds: from the SE (130 degrees) at 7 MPH (6 knots; 3.1 m/s)
Visibility: 6 or more miles (10+ km)
Ceiling: at least 12,000 feet AGL
Clouds: few clouds at 1700 feet AGL
scattered clouds at 5000 feet AGL
Weather: no significant weather observed at this time

METAR text: VVTS 182030Z 13006KT 9999 FEW017 SCT050 26/24 Q1011 NOSIG
Conditions at: VVTS (HO CHI MINH/TANS, VN) observed 2030 UTC 18 February 2019
Temperature: 26.0°C (79°F)
Dewpoint: 24.0°C (75°F) [RH = 89%]
Pressure (altimeter): 29.85 inches Hg (1011.0 mb)
Winds: from the SE (130 degrees) at 7 MPH (6 knots; 3.1 m/s)
Visibility: 6 or more miles (10+ km)
Ceiling: at least 12,000 feet AGL
Clouds: few clouds at 1700 feet AGL
scattered clouds at 5000 feet AGL
Weather: no significant weather observed at this time

METAR text: VVTS 182000Z 12006KT 9999 FEW017 SCT050 26/24 Q1011 NOSIG
Conditions at: VVTS (HO CHI MINH/TANS, VN) observed 2000 UTC 18 February 2019
Temperature: 26.0°C (79°F)
Dewpoint: 24.0°C (75°F) [RH = 89%]
Pressure (altimeter): 29.85 inches Hg (1011.0 mb)
Winds: from the ESE (120 degrees) at 7 MPH (6 knots; 3.1 m/s)
Visibility: 6 or more miles (10+ km)
Ceiling: at least 12,000 feet AGL
Clouds: few clouds at 1700 feet AGL
scattered clouds at 5000 feet AGL
Weather: no significant weather observed at this time

METAR text: VVTS 181930Z 13005KT 100V180 9999 FEW017 SCT050 26/24 Q1011 NOSIG
Conditions at: VVTS (HO CHI MINH/TANS, VN) observed 1930 UTC 18 February 2019
Temperature: 26.0°C (79°F)
Dewpoint: 24.0°C (75°F) [RH = 89%]
Pressure (altimeter): 29.85 inches Hg (1011.0 mb)
Winds: from the SE (130 degrees) at 6 MPH (5 knots; 2.6 m/s)
Visibility: 6 or more miles (10+ km)
Ceiling: at least 12,000 feet AGL
Clouds: few clouds at 1700 feet AGL
scattered clouds at 5000 feet AGL
Weather: no significant weather observed at this time

METAR text: VVTS 181630Z 14005KT 100V170 9999 SCT020 26/24 Q1013 NOSIG
Conditions at: VVTS (HO CHI MINH/TANS, VN) observed 1630 UTC 18 February 2019
Temperature: 26.0°C (79°F)
Dewpoint: 24.0°C (75°F) [RH = 89%]
Pressure (altimeter): 29.91 inches Hg (1013.0 mb)
Winds: from the SE (140 degrees) at 6 MPH (5 knots; 2.6 m/s)
Visibility: 6 or more miles (10+ km)
Ceiling: at least 12,000 feet AGL
Clouds: scattered clouds at 2000 feet AGL
Weather: no significant weather observed at this time

METAR text: VVTS 181600Z 13007KT 100V160 9999 SCT020 26/24 Q1013 NOSIG
Conditions at: VVTS (HO CHI MINH/TANS, VN) observed 1600 UTC 18 February 2019
Temperature: 26.0°C (79°F)
Dewpoint: 24.0°C (75°F) [RH = 89%]
Pressure (altimeter): 29.91 inches Hg (1013.0 mb)
Winds: from the SE (130 degrees) at 8 MPH (7 knots; 3.6 m/s)
Visibility: 6 or more miles (10+ km)
Ceiling: at least 12,000 feet AGL
Clouds: scattered clouds at 2000 feet AGL
Weather: no significant weather observed at this time

METAR text: VVTS 181530Z 13007KT 110V170 9999 SCT020 27/24 Q1013 NOSIG
Conditions at: VVTS (HO CHI MINH/TANS, VN) observed 1530 UTC 18 February 2019
Temperature: 27.0°C (81°F)
Dewpoint: 24.0°C (75°F) [RH = 84%]
Pressure (altimeter): 29.91 inches Hg (1013.0 mb)
Winds: from the SE (130 degrees) at 8 MPH (7 knots; 3.6 m/s)
Visibility: 6 or more miles (10+ km)
Ceiling: at least 12,000 feet AGL
Clouds: scattered clouds at 2000 feet AGL
Weather: no significant weather observed at this time

METAR text: VVTS 181500Z 13005KT 100V170 9999 SCT020 27/24 Q1013 NOSIG
Conditions at: VVTS (HO CHI MINH/TANS, VN) observed 1500 UTC 18 February 2019
Temperature: 27.0°C (81°F)
Dewpoint: 24.0°C (75°F) [RH = 84%]
Pressure (altimeter): 29.91 inches Hg (1013.0 mb)
Winds: from the SE (130 degrees) at 6 MPH (5 knots; 2.6 m/s)
Visibility: 6 or more miles (10+ km)
Ceiling: at least 12,000 feet AGL
Clouds: scattered clouds at 2000 feet AGL
Weather: no significant weather observed at this time

METAR text: VVTS 181430Z 13007KT 100V160 9999 SCT020 27/24 Q1013 NOSIG
Conditions at: VVTS (HO CHI MINH/TANS, VN) observed 1430 UTC 18 February 2019
Temperature: 27.0°C (81°F)
Dewpoint: 24.0°C (75°F) [RH = 84%]
Pressure (altimeter): 29.91 inches Hg (1013.0 mb)
Winds: from the SE (130 degrees) at 8 MPH (7 knots; 3.6 m/s)
Visibility: 6 or more miles (10+ km)
Ceiling: at least 12,000 feet AGL
Clouds: scattered clouds at 2000 feet AGL
Weather: no significant weather observed at this time

METAR text: VVTS 181400Z 14008KT 110V170 9999 FEW020 27/24 Q1013 NOSIG
Conditions at: VVTS (HO CHI MINH/TANS, VN) observed 1400 UTC 18 February 2019
Temperature: 27.0°C (81°F)
Dewpoint: 24.0°C (75°F) [RH = 84%]
Pressure (altimeter): 29.91 inches Hg (1013.0 mb)
Winds: from the SE (140 degrees) at 9 MPH (8 knots; 4.1 m/s)
Visibility: 6 or more miles (10+ km)
Ceiling: at least 12,000 feet AGL
Clouds: few clouds at 2000 feet AGL
Weather: no significant weather observed at this time

METAR text: VVTS 181330Z 14009KT 9999 FEW020 27/23 Q1012 NOSIG
Conditions at: VVTS (HO CHI MINH/TANS, VN) observed 1330 UTC 18 February 2019
Temperature: 27.0°C (81°F)
Dewpoint: 23.0°C (73°F) [RH = 79%]
Pressure (altimeter): 29.88 inches Hg (1012.0 mb)
Winds: from the SE (140 degrees) at 10 MPH (9 knots; 4.6 m/s)
Visibility: 6 or more miles (10+ km)
Ceiling: at least 12,000 feet AGL
Clouds: few clouds at 2000 feet AGL
Weather: no significant weather observed at this time

METAR text: VVTS 181300Z 15007KT 110V190 9999 FEW020 27/23 Q1012 NOSIG
Conditions at: VVTS (HO CHI MINH/TANS, VN) observed 1300 UTC 18 February 2019
Temperature: 27.0°C (81°F)
Dewpoint: 23.0°C (73°F) [RH = 79%]
Pressure (altimeter): 29.88 inches Hg (1012.0 mb)
Winds: from the SSE (150 degrees) at 8 MPH (7 knots; 3.6 m/s)
Visibility: 6 or more miles (10+ km)
Ceiling: at least 12,000 feet AGL
Clouds: few clouds at 2000 feet AGL
Weather: no significant weather observed at this time

METAR text: VVTS 181230Z 15008KT 120V200 9999 FEW020 27/23 Q1011 NOSIG
Conditions at: VVTS (HO CHI MINH/TANS, VN) observed 1230 UTC 18 February 2019
Temperature: 27.0°C (81°F)
Dewpoint: 23.0°C (73°F) [RH = 79%]
Pressure (altimeter): 29.85 inches Hg (1011.0 mb)
Winds: from the SSE (150 degrees) at 9 MPH (8 knots; 4.1 m/s)
Visibility: 6 or more miles (10+ km)
Ceiling: at least 12,000 feet AGL
Clouds: few clouds at 2000 feet AGL
Weather: no significant weather observed at this time

METAR text: VVTS 181200Z 15009KT 130V190 9999 FEW020 28/23 Q1011 NOSIG
Conditions at: VVTS (HO CHI MINH/TANS, VN) observed 1200 UTC 18 February 2019
Temperature: 28.0°C (82°F)
Dewpoint: 23.0°C (73°F) [RH = 74%]
Pressure (altimeter): 29.85 inches Hg (1011.0 mb)
Winds: from the SSE (150 degrees) at 10 MPH (9 knots; 4.6 m/s)
Visibility: 6 or more miles (10+ km)
Ceiling: at least 12,000 feet AGL
Clouds: few clouds at 2000 feet AGL
Weather: no significant weather observed at this time

METAR text: VVTS 181130Z 15008KT 120V190 9999 FEW020 SCT050 28/23 Q1011 NOSIG
Conditions at: VVTS (HO CHI MINH/TANS, VN) observed 1130 UTC 18 February 2019
Temperature: 28.0°C (82°F)
Dewpoint: 23.0°C (73°F) [RH = 74%]
Pressure (altimeter): 29.85 inches Hg (1011.0 mb)
Winds: from the SSE (150 degrees) at 9 MPH (8 knots; 4.1 m/s)
Visibility: 6 or more miles (10+ km)
Ceiling: at least 12,000 feet AGL
Clouds: few clouds at 2000 feet AGL
scattered clouds at 5000 feet AGL
Weather: no significant weather observed at this time

METAR text: VVTS 181100Z 15010KT 110V180 9999 FEW020 28/23 Q1010 NOSIG
Conditions at: VVTS (HO CHI MINH/TANS, VN) observed 1100 UTC 18 February 2019
Temperature: 28.0°C (82°F)
Dewpoint: 23.0°C (73°F) [RH = 74%]
Pressure (altimeter): 29.82 inches Hg (1010.0 mb)
Winds: from the SSE (150 degrees) at 12 MPH (10 knots; 5.1 m/s)
Visibility: 6 or more miles (10+ km)
Ceiling: at least 12,000 feet AGL
Clouds: few clouds at 2000 feet AGL
Weather: no significant weather observed at this time

METAR text: VVTS 181030Z 17009KT 130V220 9999 FEW020 29/24 Q1010 NOSIG
Conditions at: VVTS (HO CHI MINH/TANS, VN) observed 1030 UTC 18 February 2019
Temperature: 29.0°C (84°F)
Dewpoint: 24.0°C (75°F) [RH = 74%]
Pressure (altimeter): 29.82 inches Hg (1010.0 mb)
Winds: from the S (170 degrees) at 10 MPH (9 knots; 4.6 m/s)
Visibility: 6 or more miles (10+ km)
Ceiling: at least 12,000 feet AGL
Clouds: few clouds at 2000 feet AGL
Weather: no significant weather observed at this time

METAR text: VVTS 181000Z 17011KT 120V220 9999 FEW020 30/23 Q1010 NOSIG
Conditions at: VVTS (HO CHI MINH/TANS, VN) observed 1000 UTC 18 February 2019
Temperature: 30.0°C (86°F)
Dewpoint: 23.0°C (73°F) [RH = 66%]
Pressure (altimeter): 29.82 inches Hg (1010.0 mb)
Winds: from the S (170 degrees) at 13 MPH (11 knots; 5.7 m/s)
Visibility: 6 or more miles (10+ km)
Ceiling: at least 12,000 feet AGL
Clouds: few clouds at 2000 feet AGL
Weather: no significant weather observed at this time

METAR text: VVTS 180930Z 18011KT 150V210 9999 SCT020 31/22 Q1010 NOSIG
Conditions at: VVTS (HO CHI MINH/TANS, VN) observed 0930 UTC 18 February 2019
Temperature: 31.0°C (88°F)
Dewpoint: 22.0°C (72°F) [RH = 59%]
Pressure (altimeter): 29.82 inches Hg (1010.0 mb)
Winds: from the S (180 degrees) at 13 MPH (11 knots; 5.7 m/s)
Visibility: 6 or more miles (10+ km)
Ceiling: at least 12,000 feet AGL
Clouds: scattered clouds at 2000 feet AGL
Weather: no significant weather observed at this time

METAR text: VVTS 180900Z 17012KT 120V210 9999 SCT020 32/22 Q1010 NOSIG
Conditions at: VVTS (HO CHI MINH/TANS, VN) observed 0900 UTC 18 February 2019
Temperature: 32.0°C (90°F)
Dewpoint: 22.0°C (72°F) [RH = 56%]
Pressure (altimeter): 29.82 inches Hg (1010.0 mb)
Winds: from the S (170 degrees) at 14 MPH (12 knots; 6.2 m/s)
Visibility: 6 or more miles (10+ km)
Ceiling: at least 12,000 feet AGL
Clouds: scattered clouds at 2000 feet AGL
Weather: no significant weather observed at this time

METAR text: VVTS 180830Z 19011KT 150V220 9999 SCT020 31/23 Q1010 NOSIG
Conditions at: VVTS (HO CHI MINH/TANS, VN) observed 0830 UTC 18 February 2019
Temperature: 31.0°C (88°F)
Dewpoint: 23.0°C (73°F) [RH = 63%]
Pressure (altimeter): 29.82 inches Hg (1010.0 mb)
Winds: from the S (190 degrees) at 13 MPH (11 knots; 5.7 m/s)
Visibility: 6 or more miles (10+ km)
Ceiling: at least 12,000 feet AGL
Clouds: scattered clouds at 2000 feet AGL
Weather: no significant weather observed at this time

METAR text: VVTS 180800Z 18012KT 160V220 9999 SCT020 32/22 Q1010 NOSIG
Conditions at: VVTS (HO CHI MINH/TANS, VN) observed 0800 UTC 18 February 2019
Temperature: 32.0°C (90°F)
Dewpoint: 22.0°C (72°F) [RH = 56%]
Pressure (altimeter): 29.82 inches Hg (1010.0 mb)
Winds: from the S (180 degrees) at 14 MPH (12 knots; 6.2 m/s)
Visibility: 6 or more miles (10+ km)
Ceiling: at least 12,000 feet AGL
Clouds: scattered clouds at 2000 feet AGL
Weather: no significant weather observed at this time

METAR text: VVTS 180730Z 19012KT 150V230 9999 BKN017 32/22 Q1010 NOSIG
Conditions at: VVTS (HO CHI MINH/TANS, VN) observed 0730 UTC 18 February 2019
Temperature: 32.0°C (90°F)
Dewpoint: 22.0°C (72°F) [RH = 56%]
Pressure (altimeter): 29.82 inches Hg (1010.0 mb)
Winds: from the S (190 degrees) at 14 MPH (12 knots; 6.2 m/s)
Visibility: 6 or more miles (10+ km)
Ceiling: 1700 feet AGL
Clouds: broken clouds at 1700 feet AGL
Weather: no significant weather observed at this time

METAR text: VVTS 180700Z 19011KT 140V230 9999 BKN017 32/22 Q1010 NOSIG
Conditions at: VVTS (HO CHI MINH/TANS, VN) observed 0700 UTC 18 February 2019
Temperature: 32.0°C (90°F)
Dewpoint: 22.0°C (72°F) [RH = 56%]
Pressure (altimeter): 29.82 inches Hg (1010.0 mb)
Winds: from the S (190 degrees) at 13 MPH (11 knots; 5.7 m/s)
Visibility: 6 or more miles (10+ km)
Ceiling: 1700 feet AGL
Clouds: broken clouds at 1700 feet AGL
Weather: no significant weather observed at this time

METAR text: VVTS 180630Z 17010KT 130V220 9999 BKN017 32/22 Q1011 NOSIG
Conditions at: VVTS (HO CHI MINH/TANS, VN) observed 0630 UTC 18 February 2019
Temperature: 32.0°C (90°F)
Dewpoint: 22.0°C (72°F) [RH = 56%]
Pressure (altimeter): 29.85 inches Hg (1011.0 mb)
Winds: from the S (170 degrees) at 12 MPH (10 knots; 5.1 m/s)
Visibility: 6 or more miles (10+ km)
Ceiling: 1700 feet AGL
Clouds: broken clouds at 1700 feet AGL
Weather: no significant weather observed at this time

METAR text: VVTS 180600Z VRB09KT 9999 BKN017 34/19 Q1012 NOSIG
Conditions at: VVTS (HO CHI MINH/TANS, VN) observed 0600 UTC 18 February 2019
Temperature: 34.0°C (93°F)
Dewpoint: 19.0°C (66°F) [RH = 41%]
Pressure (altimeter): 29.88 inches Hg (1012.0 mb)
Winds: variable direction winds at 10 MPH (9 knots; 4.6 m/s)
Visibility: 6 or more miles (10+ km)
Ceiling: 1700 feet AGL
Clouds: broken clouds at 1700 feet AGL
Weather: no significant weather observed at this time

METAR text: VVTS 180530Z 17008G19KT 120V280 9999 BKN017 33/21 Q1012 NOSIG
Conditions at: VVTS (HO CHI MINH/TANS, VN) observed 0530 UTC 18 February 2019
Temperature: 33.0°C (91°F)
Dewpoint: 21.0°C (70°F) [RH = 49%]
Pressure (altimeter): 29.88 inches Hg (1012.0 mb)
Winds: from the S (170 degrees) at 9 MPH (8 knots; 4.1 m/s)
gusting to 22 MPH (19 knots; 9.8 m/s)
Visibility: 6 or more miles (10+ km)
Ceiling: 1700 feet AGL
Clouds: broken clouds at 1700 feet AGL
Weather: no significant weather observed at this time

METAR text: VVTS 180500Z VRB09KT 9999 BKN017 33/20 Q1013 NOSIG
Conditions at: VVTS (HO CHI MINH/TANS, VN) observed 0500 UTC 18 February 2019
Temperature: 33.0°C (91°F)
Dewpoint: 20.0°C (68°F) [RH = 46%]
Pressure (altimeter): 29.91 inches Hg (1013.0 mb)
Winds: variable direction winds at 10 MPH (9 knots; 4.6 m/s)
Visibility: 6 or more miles (10+ km)
Ceiling: 1700 feet AGL
Clouds: broken clouds at 1700 feet AGL
Weather: no significant weather observed at this time

METAR text: VVTS 180430Z 13007KT 050V180 9999 BKN017 34/20 Q1013 NOSIG
Conditions at: VVTS (HO CHI MINH/TANS, VN) observed 0430 UTC 18 February 2019
Temperature: 34.0°C (93°F)
Dewpoint: 20.0°C (68°F) [RH = 44%]
Pressure (altimeter): 29.91 inches Hg (1013.0 mb)
Winds: from the SE (130 degrees) at 8 MPH (7 knots; 3.6 m/s)
Visibility: 6 or more miles (10+ km)
Ceiling: 1700 feet AGL
Clouds: broken clouds at 1700 feet AGL
Weather: no significant weather observed at this time

METAR text: VVTS 180400Z VRB08KT 9999 BKN017 32/21 Q1014 NOSIG
Conditions at: VVTS (HO CHI MINH/TANS, VN) observed 0400 UTC 18 February 2019
Temperature: 32.0°C (90°F)
Dewpoint: 21.0°C (70°F) [RH = 52%]
Pressure (altimeter): 29.94 inches Hg (1014.0 mb)
Winds: variable direction winds at 9 MPH (8 knots; 4.1 m/s)
Visibility: 6 or more miles (10+ km)
Ceiling: 1700 feet AGL
Clouds: broken clouds at 1700 feet AGL
Weather: no significant weather observed at this time

METAR text: VVTS 180330Z 11007KT 070V160 9999 BKN017 32/22 Q1014 NOSIG
Conditions at: VVTS (HO CHI MINH/TANS, VN) observed 0330 UTC 18 February 2019
Temperature: 32.0°C (90°F)
Dewpoint: 22.0°C (72°F) [RH = 56%]
Pressure (altimeter): 29.94 inches Hg (1014.0 mb)
Winds: from the ESE (110 degrees) at 8 MPH (7 knots; 3.6 m/s)
Visibility: 6 or more miles (10+ km)
Ceiling: 1700 feet AGL
Clouds: broken clouds at 1700 feet AGL
Weather: no significant weather observed at this time

METAR text: VVTS 180300Z 14007KT 090V220 9999 BKN017 31/23 Q1014 NOSIG
Conditions at: VVTS (HO CHI MINH/TANS, VN) observed 0300 UTC 18 February 2019
Temperature: 31.0°C (88°F)
Dewpoint: 23.0°C (73°F) [RH = 63%]
Pressure (altimeter): 29.94 inches Hg (1014.0 mb)
Winds: from the SE (140 degrees) at 8 MPH (7 knots; 3.6 m/s)
Visibility: 6 or more miles (10+ km)
Ceiling: 1700 feet AGL
Clouds: broken clouds at 1700 feet AGL
Weather: no significant weather observed at this time

METAR text: VVTS 180230Z 14006KT 070V210 9999 BKN017 30/23 Q1014 NOSIG
Conditions at: VVTS (HO CHI MINH/TANS, VN) observed 0230 UTC 18 February 2019
Temperature: 30.0°C (86°F)
Dewpoint: 23.0°C (73°F) [RH = 66%]
Pressure (altimeter): 29.94 inches Hg (1014.0 mb)
Winds: from the SE (140 degrees) at 7 MPH (6 knots; 3.1 m/s)
Visibility: 6 or more miles (10+ km)
Ceiling: 1700 feet AGL
Clouds: broken clouds at 1700 feet AGL
Weather: no significant weather observed at this time

METAR text: VVTS 180200Z 12009KT 080V150 9999 BKN017 29/24 Q1014 NOSIG
Conditions at: VVTS (HO CHI MINH/TANS, VN) observed 0200 UTC 18 February 2019
Temperature: 29.0°C (84°F)
Dewpoint: 24.0°C (75°F) [RH = 74%]
Pressure (altimeter): 29.94 inches Hg (1014.0 mb)
Winds: from the ESE (120 degrees) at 10 MPH (9 knots; 4.6 m/s)
Visibility: 6 or more miles (10+ km)
Ceiling: 1700 feet AGL
Clouds: broken clouds at 1700 feet AGL
Weather: no significant weather observed at this time

METAR text: VVTS 180130Z 14006KT 100V200 9999 SCT017 29/24 Q1013 NOSIG
Conditions at: VVTS (HO CHI MINH/TANS, VN) observed 0130 UTC 18 February 2019
Temperature: 29.0°C (84°F)
Dewpoint: 24.0°C (75°F) [RH = 74%]
Pressure (altimeter): 29.91 inches Hg (1013.0 mb)
Winds: from the SE (140 degrees) at 7 MPH (6 knots; 3.1 m/s)
Visibility: 6 or more miles (10+ km)
Ceiling: at least 12,000 feet AGL
Clouds: scattered clouds at 1700 feet AGL
Weather: no significant weather observed at this time

METAR text: VVTS 180100Z 13008KT 100V160 9999 SCT017 28/24 Q1013 NOSIG
Conditions at: VVTS (HO CHI MINH/TANS, VN) observed 0100 UTC 18 February 2019
Temperature: 28.0°C (82°F)
Dewpoint: 24.0°C (75°F) [RH = 79%]
Pressure (altimeter): 29.91 inches Hg (1013.0 mb)
Winds: from the SE (130 degrees) at 9 MPH (8 knots; 4.1 m/s)
Visibility: 6 or more miles (10+ km)
Ceiling: at least 12,000 feet AGL
Clouds: scattered clouds at 1700 feet AGL
Weather: no significant weather observed at this time

METAR text: VVTS 180030Z 14010KT 9999 FEW017 27/24 Q1012 NOSIG
Conditions at: VVTS (HO CHI MINH/TANS, VN) observed 0030 UTC 18 February 2019
Temperature: 27.0°C (81°F)
Dewpoint: 24.0°C (75°F) [RH = 84%]
Pressure (altimeter): 29.88 inches Hg (1012.0 mb)
Winds: from the SE (140 degrees) at 12 MPH (10 knots; 5.1 m/s)
Visibility: 6 or more miles (10+ km)
Ceiling: at least 12,000 feet AGL
Clouds: few clouds at 1700 feet AGL
Weather: no significant weather observed at this time

METAR text: VVTS 180000Z 14009KT 9999 FEW017 26/24 Q1012 NOSIG
Conditions at: VVTS (HO CHI MINH/TANS, VN) observed 0000 UTC 18 February 2019
Temperature: 26.0°C (79°F)
Dewpoint: 24.0°C (75°F) [RH = 89%]
Pressure (altimeter): 29.88 inches Hg (1012.0 mb)
Winds: from the SE (140 degrees) at 10 MPH (9 knots; 4.6 m/s)
Visibility: 6 or more miles (10+ km)
Ceiling: at least 12,000 feet AGL
Clouds: few clouds at 1700 feet AGL
Weather: no significant weather observed at this time

METAR text: VVTS 172330Z 13009KT 9999 FEW017 25/24 Q1012 NOSIG
Conditions at: VVTS (HO CHI MINH/TANS, VN) observed 2330 UTC 17 February 2019
Temperature: 25.0°C (77°F)
Dewpoint: 24.0°C (75°F) [RH = 94%]
Pressure (altimeter): 29.88 inches Hg (1012.0 mb)
Winds: from the SE (130 degrees) at 10 MPH (9 knots; 4.6 m/s)
Visibility: 6 or more miles (10+ km)
Ceiling: at least 12,000 feet AGL
Clouds: few clouds at 1700 feet AGL
Weather: no significant weather observed at this time

METAR text: VVTS 172300Z 12006KT 9999 FEW017 25/24 Q1011 NOSIG
Conditions at: VVTS (HO CHI MINH/TANS, VN) observed 2300 UTC 17 February 2019
Temperature: 25.0°C (77°F)
Dewpoint: 24.0°C (75°F) [RH = 94%]
Pressure (altimeter): 29.85 inches Hg (1011.0 mb)
Winds: from the ESE (120 degrees) at 7 MPH (6 knots; 3.1 m/s)
Visibility: 6 or more miles (10+ km)
Ceiling: at least 12,000 feet AGL
Clouds: few clouds at 1700 feet AGL
Weather: no significant weather observed at this time

METAR text: VVTS 172230Z 13006KT 100V160 9999 SCT017 25/24 Q1011 NOSIG
Conditions at: VVTS (HO CHI MINH/TANS, VN) observed 2230 UTC 17 February 2019
Temperature: 25.0°C (77°F)
Dewpoint: 24.0°C (75°F) [RH = 94%]
Pressure (altimeter): 29.85 inches Hg (1011.0 mb)
Winds: from the SE (130 degrees) at 7 MPH (6 knots; 3.1 m/s)
Visibility: 6 or more miles (10+ km)
Ceiling: at least 12,000 feet AGL
Clouds: scattered clouds at 1700 feet AGL
Weather: no significant weather observed at this time

METAR text: VVTS 172200Z 13006KT 9999 BKN017 25/24 Q1011 NOSIG
Conditions at: VVTS (HO CHI MINH/TANS, VN) observed 2200 UTC 17 February 2019
Temperature: 25.0°C (77°F)
Dewpoint: 24.0°C (75°F) [RH = 94%]
Pressure (altimeter): 29.85 inches Hg (1011.0 mb)
Winds: from the SE (130 degrees) at 7 MPH (6 knots; 3.1 m/s)
Visibility: 6 or more miles (10+ km)
Ceiling: 1700 feet AGL
Clouds: broken clouds at 1700 feet AGL
Weather: no significant weather observed at this time

METAR text: VVTS 172130Z 13006KT 9999 BKN017 26/24 Q1011 NOSIG
Conditions at: VVTS (HO CHI MINH/TANS, VN) observed 2130 UTC 17 February 2019
Temperature: 26.0°C (79°F)
Dewpoint: 24.0°C (75°F) [RH = 89%]
Pressure (altimeter): 29.85 inches Hg (1011.0 mb)
Winds: from the SE (130 degrees) at 7 MPH (6 knots; 3.1 m/s)
Visibility: 6 or more miles (10+ km)
Ceiling: 1700 feet AGL
Clouds: broken clouds at 1700 feet AGL
Weather: no significant weather observed at this time

METAR text: VVTS 172100Z 13006KT 9999 BKN017 26/24 Q1011 NOSIG
Conditions at: VVTS (HO CHI MINH/TANS, VN) observed 2100 UTC 17 February 2019
Temperature: 26.0°C (79°F)
Dewpoint: 24.0°C (75°F) [RH = 89%]
Pressure (altimeter): 29.85 inches Hg (1011.0 mb)
Winds: from the SE (130 degrees) at 7 MPH (6 knots; 3.1 m/s)
Visibility: 6 or more miles (10+ km)
Ceiling: 1700 feet AGL
Clouds: broken clouds at 1700 feet AGL
Weather: no significant weather observed at this time

METAR text: VVTS 172030Z 14005KT 040V190 9999 BKN017 26/24 Q1011 NOSIG
Conditions at: VVTS (HO CHI MINH/TANS, VN) observed 2030 UTC 17 February 2019
Temperature: 26.0°C (79°F)
Dewpoint: 24.0°C (75°F) [RH = 89%]
Pressure (altimeter): 29.85 inches Hg (1011.0 mb)
Winds: from the SE (140 degrees) at 6 MPH (5 knots; 2.6 m/s)
Visibility: 6 or more miles (10+ km)
Ceiling: 1700 feet AGL
Clouds: broken clouds at 1700 feet AGL
Weather: no significant weather observed at this time

METAR text: VVTS 172000Z 13004KT 100V190 9999 BKN017 26/24 Q1011 NOSIG
Conditions at: VVTS (HO CHI MINH/TANS, VN) observed 2000 UTC 17 February 2019
Temperature: 26.0°C (79°F)
Dewpoint: 24.0°C (75°F) [RH = 89%]
Pressure (altimeter): 29.85 inches Hg (1011.0 mb)
Winds: from the SE (130 degrees) at 5 MPH (4 knots; 2.1 m/s)
Visibility: 6 or more miles (10+ km)
Ceiling: 1700 feet AGL
Clouds: broken clouds at 1700 feet AGL
Weather: no significant weather observed at this time

METAR text: VVTS 171930Z 13006KT 9999 BKN017 26/24 Q1011 NOSIG
Conditions at: VVTS (HO CHI MINH/TANS, VN) observed 1930 UTC 17 February 2019
Temperature: 26.0°C (79°F)
Dewpoint: 24.0°C (75°F) [RH = 89%]
Pressure (altimeter): 29.85 inches Hg (1011.0 mb)
Winds: from the SE (130 degrees) at 7 MPH (6 knots; 3.1 m/s)
Visibility: 6 or more miles (10+ km)
Ceiling: 1700 feet AGL
Clouds: broken clouds at 1700 feet AGL
Weather: no significant weather observed at this time

METAR text: VVTS 171900Z 14007KT 9999 SCT020 26/24 Q1011 NOSIG
Conditions at: VVTS (HO CHI MINH/TANS, VN) observed 1900 UTC 17 February 2019
Temperature: 26.0°C (79°F)
Dewpoint: 24.0°C (75°F) [RH = 89%]
Pressure (altimeter): 29.85 inches Hg (1011.0 mb)
Winds: from the SE (140 degrees) at 8 MPH (7 knots; 3.6 m/s)
Visibility: 6 or more miles (10+ km)
Ceiling: at least 12,000 feet AGL
Clouds: scattered clouds at 2000 feet AGL
Weather: no significant weather observed at this time

METAR text: VVTS 171830Z 14005KT 110V190 9999 FEW020 26/24 Q1011 NOSIG
Conditions at: VVTS (HO CHI MINH/TANS, VN) observed 1830 UTC 17 February 2019
Temperature: 26.0°C (79°F)
Dewpoint: 24.0°C (75°F) [RH = 89%]
Pressure (altimeter): 29.85 inches Hg (1011.0 mb)
Winds: from the SE (140 degrees) at 6 MPH (5 knots; 2.6 m/s)
Visibility: 6 or more miles (10+ km)
Ceiling: at least 12,000 feet AGL
Clouds: few clouds at 2000 feet AGL
Weather: no significant weather observed at this time

METAR text: VVTS 171800Z 14005KT 110V170 9999 FEW020 26/24 Q1011 NOSIG
Conditions at: VVTS (HO CHI MINH/TANS, VN) observed 1800 UTC 17 February 2019
Temperature: 26.0°C (79°F)
Dewpoint: 24.0°C (75°F) [RH = 89%]
Pressure (altimeter): 29.85 inches Hg (1011.0 mb)
Winds: from the SE (140 degrees) at 6 MPH (5 knots; 2.6 m/s)
Visibility: 6 or more miles (10+ km)
Ceiling: at least 12,000 feet AGL
Clouds: few clouds at 2000 feet AGL
Weather: no significant weather observed at this time

METAR text: VVTS 171730Z 13004KT 110V170 9999 FEW020 26/24 Q1012 NOSIG
Conditions at: VVTS (HO CHI MINH/TANS, VN) observed 1730 UTC 17 February 2019
Temperature: 26.0°C (79°F)
Dewpoint: 24.0°C (75°F) [RH = 89%]
Pressure (altimeter): 29.88 inches Hg (1012.0 mb)
Winds: from the SE (130 degrees) at 5 MPH (4 knots; 2.1 m/s)
Visibility: 6 or more miles (10+ km)
Ceiling: at least 12,000 feet AGL
Clouds: few clouds at 2000 feet AGL
Weather: no significant weather observed at this time

Forecast for: VVTS (HO CHI MINH/TANS, VN)
Text: TAF VVTS 182300Z 1900/2006 13010KT 9999 SCT017
Forecast period: 0000 UTC 19 February 2019 to 0600 UTC 20 February 2019
Forecast type: FROM: standard forecast or significant change
Winds: from the SE (130 degrees) at 12 MPH (10 knots; 5.1 m/s)
Visibility: 6 or more miles 10+ km)
Ceiling: at least 12,000 feet AGL
Clouds: scattered clouds at 1700 feet AGL
Weather: no significant weather forecast for this period